CYTH

Thompson Airport

Thompson, Manitoba, Canada
METAR CYTH 220500Z 07006G15KT 030V110 15SM BKN160 18/09 A2990 RMK AC6 SLP132 DENSITY ALT 1300FT
Observed Flight Rules
Jun-22 @ 05:00 UTC (48 minutes ago) Visual Flight Rules
Wind Visibility Clouds
70° at 6 knots
 Gusting to 15 knots
15 miles
  • Broken at 16,000' AGL
Temperatures Readings
Current 18°C / 64°F
Dewpoint 9°C / 48°F
Humidity 56%
Altimeter 29.9" Hg
Pressure 1013.2 hPa
Elevation 218
METAR CYTH 220500Z 07006G15KT 030V110 15SM BKN160 18/09 A2990 RMK AC6 SLP132 DENSITY ALT 1300FT
Observed Flight Rules
Jun-22 @ 05:00 UTC
(48 minutes ago)
VFR
Wind Visibility
70° at 6 knots
 Gusting to 15 knots
15 miles
Clouds
  • Broken at 16,000' AGL
Temperature Dewpoint
18°C / 64°F 9°C / 48°F
Humidity Altimeter Pressure
56% 29.9" Hg 1013.2 hPa